Time;durP1;ratioP1;P1;durP2;ratioP2;P2;SDS_P1;SDS_P2;PMS_P1;PMS_P2;Temp;Humidity;BMP_temperature;BMP_pressure;BME280_temperature;BME280_humidity;BME280_pressure;Samples;Min_cycle;Max_cycle;Signal;HPM_P1;HPM_P2
2021/04/06 00:01:42;;;;;;;5.80;1.60;;;;;;;0.67;100.00;99957.13;4949033;28;20717;-69
2021/04/06 00:04:14;;;;;;;6.03;1.60;;;;;;;0.76;100.00;99961.09;4935485;29;20638;-69
2021/04/06 00:06:41;;;;;;;2.30;1.37;;;;;;;0.65;100.00;99966.41;4934174;29;20227;-69
2021/04/06 00:09:12;;;;;;;3.20;1.70;;;;;;;0.61;100.00;99950.03;4967158;28;20218;-69
2021/04/06 00:11:39;;;;;;;4.77;1.60;;;;;;;0.47;100.00;99959.22;4929621;28;20657;-70
2021/04/06 00:14:06;;;;;;;5.63;1.63;;;;;;;0.39;100.00;99951.53;4953307;29;20712;-69
2021/04/06 00:16:32;;;;;;;5.47;2.00;;;;;;;0.57;100.00;99953.34;4952779;29;20238;-69
2021/04/06 00:18:59;;;;;;;4.40;1.67;;;;;;;0.42;100.00;99951.09;4953452;29;20187;-69
2021/04/06 00:21:25;;;;;;;6.67;1.77;;;;;;;0.44;100.00;99943.69;4968449;28;20231;-69
2021/04/06 00:23:50;;;;;;;4.23;1.70;;;;;;;0.39;100.00;99951.53;4968481;28;20175;-69
2021/04/06 00:26:16;;;;;;;3.37;1.40;;;;;;;0.35;100.00;99959.41;4964895;28;20273;-69
2021/04/06 00:28:44;;;;;;;7.73;2.00;;;;;;;0.31;100.00;99958.22;4953081;29;20278;-68
2021/04/06 00:31:12;;;;;;;3.20;1.50;;;;;;;0.29;100.00;99950.41;4952550;28;20230;-69
2021/04/06 00:33:40;;;;;;;4.70;1.70;;;;;;;0.24;100.00;99946.78;4952221;28;20206;-69
2021/04/06 00:36:05;;;;;;;6.87;1.50;;;;;;;0.12;100.00;99951.25;4968538;28;20238;-69
2021/04/06 00:38:40;;;;;;;3.57;1.60;;;;;;;0.25;100.00;99949.25;4936835;29;20560;-69
2021/04/06 00:41:13;;;;;;;3.50;1.50;;;;;;;0.21;100.00;99947.25;4967618;28;20226;-69
2021/04/06 00:43:43;;;;;;;4.07;1.73;;;;;;;0.12;100.00;99949.41;4952231;29;20183;-69
2021/04/06 00:46:14;;;;;;;4.60;1.70;;;;;;;0.08;100.00;99947.41;4967822;28;20239;-69
2021/04/06 00:48:41;;;;;;;8.10;2.60;;;;;;;0.24;100.00;99952.13;4969028;28;20190;-69
2021/04/06 00:51:12;;;;;;;7.27;2.50;;;;;;;0.09;100.00;99949.88;4951949;29;20257;-69
2021/04/06 00:53:58;;;;;;;3.53;1.70;;;;;;;0.11;100.00;99957.63;4968071;28;20213;-69
2021/04/06 00:56:31;;;;;;;5.13;2.20;;;;;;;0.15;100.00;99948.16;4959316;28;20596;-70
2021/04/06 00:59:03;;;;;;;3.20;1.47;;;;;;;0.12;100.00;99944.06;4968802;28;20277;-68
2021/04/06 01:01:36;;;;;;;5.47;1.80;;;;;;;0.15;100.00;99950.84;4967790;28;20253;-69
2021/04/06 01:04:25;;;;;;;2.13;1.43;;;;;;;0.11;100.00;99958.47;4968027;28;20747;-69
2021/04/06 01:07:14;;;;;;;3.70;1.50;;;;;;;-0.01;100.00;99956.75;4962510;28;20662;-69
2021/04/06 01:09:48;;;;;;;4.13;1.73;;;;;;;0.01;100.00;99958.16;4968308;28;20254;-69
2021/04/06 01:12:15;;;;;;;6.87;1.93;;;;;;;-0.01;100.00;99961.28;4950883;28;20721;-69
2021/04/06 01:14:43;;;;;;;4.57;1.70;;;;;;;-0.07;100.00;99960.31;4968460;28;20262;-69
2021/04/06 01:17:09;;;;;;;5.43;1.70;;;;;;;-0.06;100.00;99969.94;4967998;28;20290;-69
2021/04/06 01:19:37;;;;;;;4.50;1.87;;;;;;;0.06;100.00;99954.81;4967307;28;20214;-69
2021/04/06 01:22:10;;;;;;;6.57;1.80;;;;;;;-0.09;100.00;99962.38;4950267;29;20215;-69
2021/04/06 01:24:36;;;;;;;4.77;1.97;;;;;;;-0.23;100.00;99960.88;4951983;28;20179;-70
2021/04/06 01:27:03;;;;;;;3.73;1.90;;;;;;;-0.13;100.00;99963.84;4967364;28;20650;-69
2021/04/06 01:29:31;;;;;;;6.47;1.67;;;;;;;-0.02;100.00;99963.09;4952059;28;20208;-69
2021/04/06 01:31:58;;;;;;;5.07;1.97;;;;;;;-0.01;100.00;99958.59;4950328;29;20242;-69
2021/04/06 01:34:23;;;;;;;4.30;1.63;;;;;;;0.01;100.00;99957.34;4952122;28;20680;-69
2021/04/06 01:36:53;;;;;;;4.40;1.63;;;;;;;-0.13;100.00;99963.84;4951219;28;20731;-68
2021/04/06 01:39:23;;;;;;;4.33;1.60;;;;;;;-0.14;100.00;99964.88;4951608;28;20183;-69
2021/04/06 01:41:51;;;;;;;4.03;1.73;;;;;;;-0.12;100.00;99957.47;4950291;28;20227;-69
2021/04/06 01:44:17;;;;;;;3.20;1.60;;;;;;;-0.17;100.00;99959.97;4968198;28;20656;-68
2021/04/06 01:46:44;;;;;;;5.83;1.60;;;;;;;-0.14;100.00;99953.41;4950763;28;20247;-69
2021/04/06 01:49:13;;;;;;;6.00;1.77;;;;;;;-0.28;100.00;99952.72;4959566;28;20269;-69
2021/04/06 01:51:39;;;;;;;3.57;1.43;;;;;;;-0.16;100.00;99956.28;4942986;28;20703;-69
2021/04/06 01:54:06;;;;;;;2.30;1.83;;;;;;;-0.17;100.00;99962.66;4951347;28;20187;-69
2021/04/06 01:56:36;;;;;;;3.37;1.80;;;;;;;-0.19;100.00;99956.72;4946372;28;20230;-69
2021/04/06 01:59:07;;;;;;;4.83;1.43;;;;;;;-0.22;100.00;99949.19;4963456;28;20194;-68
2021/04/06 02:01:33;;;;;;;3.77;1.63;;;;;;;-0.32;100.00;99956.84;4947633;28;20227;-69
2021/04/06 02:04:03;;;;;;;2.93;1.70;;;;;;;-0.14;100.00;99958.75;4931466;29;20194;-69
2021/04/06 02:06:30;;;;;;;5.10;2.00;;;;;;;-0.22;100.00;99945.69;4946540;28;20236;-69
2021/04/06 02:08:56;;;;;;;4.30;1.70;;;;;;;-0.21;100.00;99948.13;4948816;29;20657;-69
2021/04/06 02:11:31;;;;;;;5.67;1.80;;;;;;;-0.18;100.00;99949.56;4932967;28;20242;-69
2021/04/06 02:14:11;;;;;;;2.70;1.90;;;;;;;-0.05;100.00;99958.22;4963229;28;20549;-69
2021/04/06 02:17:06;;;;;;;4.27;1.80;;;;;;;-0.07;100.00;99954.97;4965553;28;20235;-70
2021/04/06 02:19:34;;;;;;;6.13;1.70;;;;;;;-0.25;100.00;99952.28;4948507;29;20210;-70
2021/04/06 02:22:03;;;;;;;4.37;1.50;;;;;;;-0.24;100.00;99953.09;4971783;28;20277;-69
2021/04/06 02:24:38;;;;;;;3.53;1.90;;;;;;;-0.09;100.00;99957.06;4940896;29;20187;-69
2021/04/06 02:27:14;;;;;;;5.53;1.83;;;;;;;-0.04;100.00;99954.50;4952205;28;20222;-69
2021/04/06 02:29:44;;;;;;;7.13;2.00;;;;;;;-0.12;100.00;99952.16;4950243;28;20190;-69
2021/04/06 02:32:11;;;;;;;3.73;1.70;;;;;;;-0.04;100.00;99959.84;4950966;28;20223;-69
2021/04/06 02:34:38;;;;;;;5.30;2.00;;;;;;;0.03;100.00;99955.25;4967937;28;20612;-69
2021/04/06 02:37:03;;;;;;;4.63;2.00;;;;;;;-0.03;100.00;99950.00;4967258;28;20262;-69
2021/04/06 02:39:29;;;;;;;6.67;2.20;;;;;;;0.02;100.00;99953.66;4968029;28;20185;-69
2021/04/06 02:41:57;;;;;;;5.37;2.43;;;;;;;0.09;100.00;99949.03;4965774;28;20744;-69
2021/04/06 02:44:23;;;;;;;4.57;2.20;;;;;;;-0.07;100.00;99954.13;4964460;28;20195;-69
2021/04/06 02:46:51;;;;;;;3.40;2.07;;;;;;;-0.17;100.00;99943.97;4966002;28;20628;-69
2021/04/06 02:49:20;;;;;;;3.97;2.13;;;;;;;-0.03;100.00;99945.47;4950701;29;20225;-69
2021/04/06 02:51:46;;;;;;;3.80;2.23;;;;;;;-0.07;100.00;99951.47;4964347;28;20323;-69
2021/04/06 02:54:14;;;;;;;3.40;2.40;;;;;;;0.08;100.00;99952.75;4951000;29;20195;-69
2021/04/06 02:56:39;;;;;;;5.17;2.77;;;;;;;0.03;100.00;99949.94;4950027;28;20273;-68
2021/04/06 02:59:19;;;;;;;6.80;3.13;;;;;;;-0.03;100.00;99950.81;4950874;29;20617;-68
2021/04/06 03:01:46;;;;;;;5.53;2.93;;;;;;;0.01;100.00;99952.00;4943048;28;20265;-69
2021/04/06 03:04:19;;;;;;;6.90;3.63;;;;;;;0.17;100.00;99951.41;4966903;28;20218;-69
2021/04/06 03:06:45;;;;;;;7.17;3.80;;;;;;;0.12;100.00;99964.59;4966669;28;20242;-70
2021/04/06 03:09:12;;;;;;;6.43;3.13;;;;;;;0.16;100.00;99944.44;4951071;28;20190;-69
2021/04/06 03:11:42;;;;;;;6.20;3.67;;;;;;;0.11;100.00;99954.97;4942477;29;20218;-69
2021/04/06 03:14:08;;;;;;;7.47;3.37;;;;;;;0.21;100.00;99947.25;4966385;28;20679;-69
2021/04/06 03:16:33;;;;;;;6.50;3.47;;;;;;;0.29;100.00;99949.63;4966113;28;20256;-69
2021/04/06 03:19:03;;;;;;;6.27;4.03;;;;;;;0.31;100.00;99952.88;4953322;28;20253;-69
2021/04/06 03:21:31;;;;;;;4.93;3.67;;;;;;;0.34;100.00;99952.44;4969895;28;20230;-69
2021/04/06 03:23:58;;;;;;;3.70;3.07;;;;;;;0.33;100.00;99962.31;4968933;28;20249;-69
2021/04/06 03:26:23;;;;;;;5.53;3.40;;;;;;;0.45;100.00;99950.63;4967034;28;20233;-70
2021/04/06 03:28:51;;;;;;;6.10;3.03;;;;;;;0.44;100.00;99941.00;4967254;28;20184;-69
2021/04/06 03:31:22;;;;;;;6.33;3.53;;;;;;;0.57;100.00;99940.00;4950236;28;20235;-70
2021/04/06 03:33:52;;;;;;;5.67;3.53;;;;;;;0.60;100.00;99948.38;4949814;28;20263;-69
2021/04/06 03:36:28;;;;;;;6.70;3.87;;;;;;;0.46;100.00;99941.59;4950746;28;20227;-69
2021/04/06 03:38:59;;;;;;;5.90;3.83;;;;;;;0.61;100.00;99952.69;4935054;29;20194;-69
2021/04/06 03:41:31;;;;;;;4.57;3.80;;;;;;;0.61;100.00;99946.53;4950728;28;20661;-70
2021/04/06 03:44:07;;;;;;;6.73;4.10;;;;;;;0.62;100.00;99951.63;4949480;28;20191;-69
2021/04/06 03:46:36;;;;;;;5.77;4.00;;;;;;;0.58;100.00;99953.13;4949781;28;20607;-70
2021/04/06 03:49:24;;;;;;;5.20;3.83;;;;;;;0.53;100.00;99953.00;4951073;28;20187;-69
2021/04/06 03:51:57;;;;;;;6.90;3.57;;;;;;;0.68;100.00;99950.75;4968165;28;20254;-70
2021/04/06 03:54:42;;;;;;;5.93;3.80;;;;;;;0.67;100.00;99943.75;4969642;28;20669;-70
2021/04/06 03:57:45;;;;;;;6.97;3.80;;;;;;;0.79;100.00;99949.97;4960977;28;20266;-70
2021/04/06 04:00:12;;;;;;;6.47;3.70;;;;;;;0.90;100.00;99943.88;4948779;29;20226;-69
2021/04/06 04:02:38;;;;;;;8.40;4.83;;;;;;;0.89;100.00;99939.53;4967400;28;20223;-69
2021/04/06 04:05:04;;;;;;;6.93;3.80;;;;;;;0.92;100.00;99947.13;4953115;28;20230;-70
2021/04/06 04:07:32;;;;;;;7.13;3.90;;;;;;;0.91;100.00;99937.47;4969654;28;20179;-69
2021/04/06 04:10:03;;;;;;;5.43;3.80;;;;;;;0.97;100.00;99932.03;4969415;28;20187;-69
2021/04/06 04:12:33;;;;;;;9.13;4.27;;;;;;;0.84;100.00;99934.91;4968164;28;20253;-70
2021/04/06 04:14:59;;;;;;;9.53;4.63;;;;;;;0.92;100.00;99941.78;4969297;28;20214;-69
2021/04/06 04:17:25;;;;;;;7.70;4.17;;;;;;;0.97;100.00;99934.69;4968972;28;20770;-69
2021/04/06 04:19:51;;;;;;;9.23;4.80;;;;;;;0.91;100.00;99948.16;4953370;29;20206;-69
2021/04/06 04:22:21;;;;;;;5.87;4.57;;;;;;;1.10;100.00;99955.03;4952468;28;20228;-69
2021/04/06 04:24:47;;;;;;;6.63;3.83;;;;;;;0.97;100.00;99945.38;4969513;28;20646;-70
2021/04/06 04:27:15;;;;;;;7.00;3.70;;;;;;;0.93;100.00;99951.41;4968358;28;20313;-69
2021/04/06 04:29:40;;;;;;;5.87;3.83;;;;;;;0.93;100.00;99938.03;4953180;28;20191;-69
2021/04/06 04:32:15;;;;;;;7.17;3.97;;;;;;;0.99;100.00;99945.97;4967599;28;20591;-70
2021/04/06 04:34:40;;;;;;;8.73;3.60;;;;;;;0.92;100.00;99934.56;4938600;29;20700;-70
2021/04/06 04:37:06;;;;;;;6.30;4.17;;;;;;;0.97;100.00;99923.19;4952396;28;20274;-70
2021/04/06 04:39:32;;;;;;;6.53;3.63;;;;;;;1.05;100.00;99925.53;4954269;29;20191;-69
2021/04/06 04:41:57;;;;;;;5.07;3.67;;;;;;;1.00;100.00;99933.41;4967396;28;20305;-69
2021/04/06 04:44:23;;;;;;;8.33;3.80;;;;;;;1.08;100.00;99938.44;4952374;29;20681;-70
2021/04/06 04:46:49;;;;;;;5.83;3.27;;;;;;;1.08;100.00;99946.44;4967697;28;20227;-70
2021/04/06 04:49:15;;;;;;;5.70;3.30;;;;;;;1.19;100.00;99938.44;4953002;29;20197;-69
2021/04/06 04:51:40;;;;;;;5.20;3.30;;;;;;;1.25;100.00;99942.91;4936270;29;20950;-70
2021/04/06 04:54:06;;;;;;;5.93;3.40;;;;;;;1.25;100.00;99943.69;4954425;28;20183;-69
2021/04/06 04:56:32;;;;;;;8.10;4.23;;;;;;;1.25;100.00;99933.00;4952848;28;20321;-70
2021/04/06 04:58:57;;;;;;;8.43;4.13;;;;;;;1.26;100.00;99945.34;4965503;28;20192;-69
2021/04/06 05:01:25;;;;;;;7.23;4.43;;;;;;;1.22;100.00;99933.44;4933897;28;20270;-70
2021/04/06 05:03:54;;;;;;;7.57;4.90;;;;;;;1.39;100.00;99941.63;4949243;28;20219;-69
2021/04/06 05:06:28;;;;;;;10.57;4.97;;;;;;;1.30;100.00;99935.81;4964489;28;20258;-70
2021/04/06 05:08:54;;;;;;;7.43;5.07;;;;;;;1.40;100.00;99933.38;4965725;28;20662;-71
2021/04/06 05:11:20;;;;;;;7.33;5.10;;;;;;;1.39;100.00;99933.59;4932716;28;20231;-70
2021/04/06 05:13:52;;;;;;;11.40;6.00;;;;;;;1.43;100.00;99940.94;4932602;29;20187;-68
2021/04/06 05:16:18;;;;;;;11.73;6.90;;;;;;;1.36;100.00;99929.53;4964457;28;20232;-69
2021/04/06 05:18:43;;;;;;;11.23;7.00;;;;;;;1.37;100.00;99941.84;4949261;29;20191;-69
2021/04/06 05:21:09;;;;;;;13.70;6.93;;;;;;;1.29;100.00;99936.84;4957104;28;20214;-69
2021/04/06 05:23:35;;;;;;;12.27;7.50;;;;;;;1.38;100.00;99948.84;4936807;29;20174;-71
2021/04/06 05:26:00;;;;;;;9.03;6.43;;;;;;;1.42;100.00;99954.53;4952591;28;20235;-71
2021/04/06 05:28:29;;;;;;;10.47;8.00;;;;;;;1.39;100.00;99955.81;4969706;28;20187;-70
2021/04/06 05:30:55;;;;;;;11.33;6.07;;;;;;;1.26;100.00;99950.69;4936339;29;20223;-68
2021/04/06 05:33:21;;;;;;;8.90;6.33;;;;;;;1.28;100.00;99948.59;4951757;29;20226;-69
2021/04/06 05:35:50;;;;;;;9.37;6.13;;;;;;;1.42;100.00;99947.31;4951538;28;20227;-69
2021/04/06 05:38:17;;;;;;;13.87;7.00;;;;;;;1.40;100.00;99946.75;4965481;28;20187;-70
2021/04/06 05:40:45;;;;;;;16.47;7.00;;;;;;;1.24;100.00;99947.41;4964373;28;20231;-69
2021/04/06 05:43:17;;;;;;;9.23;5.23;;;;;;;1.29;100.00;99944.88;4947949;29;20198;-69
2021/04/06 05:45:49;;;;;;;7.90;5.27;;;;;;;1.41;100.00;99937.69;4932137;28;20314;-70
2021/04/06 05:48:17;;;;;;;8.30;4.87;;;;;;;1.37;100.00;99941.84;4949231;28;20195;-70
2021/04/06 05:50:45;;;;;;;10.07;4.57;;;;;;;1.45;100.00;99940.69;4935506;29;20265;-69
2021/04/06 05:53:11;;;;;;;9.33;4.63;;;;;;;1.44;100.00;99947.91;4966895;28;20187;-69
2021/04/06 05:55:36;;;;;;;9.33;4.00;;;;;;;1.39;100.00;99950.47;4967700;28;20238;-71
2021/04/06 05:58:02;;;;;;;6.30;4.20;;;;;;;1.40;100.00;99944.06;4968409;28;20278;-69
2021/04/06 06:00:30;;;;;;;11.23;4.20;;;;;;;1.49;100.00;99949.91;4951683;28;20187;-70
2021/04/06 06:02:55;;;;;;;9.07;3.83;;;;;;;1.57;100.00;99942.31;4967860;28;20179;-70
2021/04/06 06:05:21;;;;;;;6.40;3.30;;;;;;;1.65;100.00;99945.47;4967374;28;20223;-71
2021/04/06 06:07:49;;;;;;;8.60;3.93;;;;;;;1.67;100.00;99953.28;4967593;28;20199;-68
2021/04/06 06:10:28;;;;;;;10.07;3.50;;;;;;;1.80;100.00;99950.38;4947282;28;20195;-71
2021/04/06 06:13:15;;;;;;;7.80;3.33;;;;;;;1.86;100.00;99957.47;4933007;29;20637;-69
2021/04/06 06:15:41;;;;;;;13.03;3.80;;;;;;;1.82;100.00;99957.09;4947709;29;20736;-69
2021/04/06 06:18:06;;;;;;;7.23;3.50;;;;;;;1.82;100.00;99956.31;4932180;29;20215;-69
2021/04/06 06:20:35;;;;;;;11.53;3.53;;;;;;;1.90;100.00;99958.63;4931850;29;20220;-69
2021/04/06 06:23:37;;;;;;;8.90;3.23;;;;;;;2.19;100.00;99964.63;4947183;29;20685;-69
2021/04/06 06:26:03;;;;;;;7.40;3.07;;;;;;;2.23;100.00;99964.97;4933800;28;20242;-69
2021/04/06 06:28:29;;;;;;;9.47;2.43;;;;;;;2.33;100.00;99977.53;4950497;28;20199;-70
2021/04/06 06:30:55;;;;;;;9.33;2.80;;;;;;;2.33;100.00;99982.09;4969384;28;20282;-70
2021/04/06 06:33:28;;;;;;;5.23;2.00;;;;;;;2.41;100.00;99976.34;4970176;28;20486;-69
2021/04/06 06:35:56;;;;;;;5.00;2.00;;;;;;;2.02;100.00;99971.75;4954951;28;20242;-69
2021/04/06 06:38:31;;;;;;;8.43;2.40;;;;;;;2.09;100.00;99980.50;4970433;28;20197;-69
2021/04/06 06:41:11;;;;;;;6.93;2.57;;;;;;;2.35;100.00;99977.31;4968187;28;20218;-70
2021/04/06 06:43:38;;;;;;;7.87;2.10;;;;;;;2.68;100.00;99989.78;4968082;28;20183;-69
2021/04/06 06:46:15;;;;;;;9.87;2.50;;;;;;;2.65;100.00;99991.31;4965495;28;20237;-70
2021/04/06 06:48:40;;;;;;;6.47;1.80;;;;;;;2.29;100.00;99975.56;4951469;28;20202;-69
2021/04/06 06:51:06;;;;;;;5.43;2.30;;;;;;;2.54;100.00;99978.75;4967068;28;20230;-69
2021/04/06 06:53:41;;;;;;;5.23;2.03;;;;;;;2.69;100.00;99994.13;4963052;28;20206;-69
2021/04/06 06:56:08;;;;;;;7.07;2.07;;;;;;;2.70;100.00;99993.03;4951544;28;20222;-68
2021/04/06 06:58:43;;;;;;;4.17;1.97;;;;;;;2.32;100.00;99985.81;4950987;28;20171;-68
2021/04/06 07:01:24;;;;;;;10.80;2.00;;;;;;;2.59;100.00;99989.59;4965355;28;20616;-69
2021/04/06 07:04:05;;;;;;;7.70;1.80;;;;;;;2.28;100.00;99984.66;4950015;28;20205;-70
2021/04/06 07:06:32;;;;;;;8.33;2.37;;;;;;;2.19;100.00;99983.38;4965407;28;20247;-70
2021/04/06 07:08:57;;;;;;;4.70;1.80;;;;;;;2.00;100.00;99987.25;4949630;28;20194;-69
2021/04/06 07:11:23;;;;;;;8.20;2.70;;;;;;;2.14;100.00;99982.44;4949944;29;20226;-69
2021/04/06 07:13:54;;;;;;;8.97;2.60;;;;;;;2.10;100.00;99975.94;4963094;28;20195;-69
2021/04/06 07:16:20;;;;;;;5.97;2.30;;;;;;;2.03;100.00;99970.72;4949149;28;20771;-68
2021/04/06 07:18:54;;;;;;;9.67;2.43;;;;;;;2.15;100.00;99978.75;4964704;28;20191;-68
2021/04/06 07:21:20;;;;;;;7.17;2.40;;;;;;;2.36;100.00;99970.88;4962265;28;20640;-69
2021/04/06 07:24:00;;;;;;;7.87;2.00;;;;;;;2.76;100.00;99967.97;4946610;29;20210;-69
2021/04/06 07:26:29;;;;;;;7.07;2.20;;;;;;;2.55;100.00;99964.34;4943842;29;20281;-68
2021/04/06 07:28:57;;;;;;;9.20;2.00;;;;;;;2.74;100.00;99964.69;4955421;28;20192;-68
2021/04/06 07:31:23;;;;;;;6.73;1.90;;;;;;;2.91;100.00;99970.94;4963830;28;20219;-68
2021/04/06 07:33:52;;;;;;;6.30;1.80;;;;;;;2.70;100.00;99960.88;4934158;29;20195;-68
2021/04/06 07:36:22;;;;;;;5.27;2.03;;;;;;;2.93;100.00;99958.13;4950764;28;20223;-69
2021/04/06 07:38:49;;;;;;;6.23;1.97;;;;;;;2.97;100.00;99971.81;4966618;28;20187;-69
2021/04/06 07:41:23;;;;;;;7.47;1.70;;;;;;;2.75;100.00;99962.84;4949943;28;20730;-69
2021/04/06 07:43:59;;;;;;;6.90;2.00;;;;;;;3.18;100.00;99950.50;4950063;29;20295;-70
2021/04/06 07:46:34;;;;;;;5.00;2.03;;;;;;;3.03;100.00;99944.88;4950073;28;20750;-68
2021/04/06 07:49:07;;;;;;;8.57;1.70;;;;;;;3.08;100.00;99945.78;4950642;28;20202;-68
2021/04/06 07:51:47;;;;;;;6.83;1.80;;;;;;;3.55;100.00;99953.31;4926140;29;20345;-68
2021/04/06 07:54:17;;;;;;;5.90;1.87;;;;;;;3.38;100.00;99969.63;4943133;29;20291;-69
2021/04/06 07:56:43;;;;;;;3.80;1.57;;;;;;;3.14;100.00;99976.19;4945368;29;20231;-69
2021/04/06 07:59:09;;;;;;;10.57;2.00;;;;;;;3.14;100.00;99992.28;4955079;28;20202;-68
2021/04/06 08:01:34;;;;;;;8.23;2.07;;;;;;;3.75;100.00;99969.72;4949778;28;20235;-71
2021/04/06 08:04:05;;;;;;;8.60;2.07;;;;;;;3.99;99.69;99973.84;4967204;28;20183;-70
2021/04/06 08:06:41;;;;;;;5.10;1.43;;;;;;;3.64;98.09;99985.91;4953208;28;20230;-69
2021/04/06 08:09:28;;;;;;;6.93;2.07;;;;;;;3.47;100.00;99971.69;4968893;28;20202;-70
2021/04/06 08:12:15;;;;;;;5.30;2.00;;;;;;;3.51;99.55;99967.44;4950523;29;20230;-70
2021/04/06 08:14:45;;;;;;;7.43;2.30;;;;;;;3.60;99.97;99969.47;4968306;28;20194;-70
2021/04/06 08:17:31;;;;;;;6.90;1.93;;;;;;;3.61;98.54;99979.16;4950942;28;20230;-71
2021/04/06 08:20:22;;;;;;;5.03;1.83;;;;;;;3.65;99.65;99972.25;4936059;29;20186;-70
2021/04/06 08:23:06;;;;;;;6.17;1.90;;;;;;;3.86;99.74;99971.50;4964755;28;20227;-70
2021/04/06 08:25:32;;;;;;;4.73;1.57;;;;;;;3.72;99.77;99975.59;4958503;28;20243;-69
2021/04/06 08:28:04;;;;;;;7.47;2.03;;;;;;;3.62;100.00;99983.47;4951889;29;20201;-70
2021/04/06 08:30:36;;;;;;;4.17;1.80;;;;;;;3.66;100.00;99971.16;4952061;28;20731;-69
2021/04/06 08:33:07;;;;;;;7.83;3.30;;;;;;;4.26;98.25;99975.56;4967294;28;20249;-69
2021/04/06 08:35:39;;;;;;;6.23;2.03;;;;;;;3.96;98.46;99982.41;4965148;28;20234;-69
2021/04/06 08:38:27;;;;;;;6.87;2.27;;;;;;;3.90;97.72;99991.41;4962765;28;20183;-69
2021/04/06 08:41:00;;;;;;;8.80;2.00;;;;;;;4.25;97.66;99982.81;4965979;28;20237;-69
2021/04/06 08:43:34;;;;;;;5.97;2.17;;;;;;;4.27;96.52;99988.75;4967444;28;20190;-69
2021/04/06 08:46:04;;;;;;;4.67;1.70;;;;;;;3.79;94.22;99970.88;4952050;28;20315;-69
2021/04/06 08:51:23;;;;;;;3.83;1.77;;;;;;;3.98;94.21;99980.28;4953084;28;20234;-70
2021/04/06 08:53:50;;;;;;;7.23;2.17;;;;;;;4.57;94.30;99975.72;4951680;28;20199;-70
2021/04/06 08:56:17;;;;;;;3.60;1.70;;;;;;;4.39;93.89;99970.63;4968133;28;20717;-69
2021/04/06 08:58:47;;;;;;;5.30;2.00;;;;;;;4.51;93.66;99967.84;4964362;28;20242;-69
2021/04/06 09:01:13;;;;;;;4.07;2.07;;;;;;;4.49;91.81;99961.91;4933399;29;20239;-69
2021/04/06 09:03:38;;;;;;;3.93;1.73;;;;;;;4.78;92.04;99972.19;4940994;29;20194;-69
2021/04/06 09:06:08;;;;;;;6.07;2.20;;;;;;;4.31;91.06;99975.66;4966961;28;20285;-68
2021/04/06 09:08:52;;;;;;;6.40;2.27;;;;;;;4.59;91.29;99971.69;4965256;28;20187;-69
2021/04/06 09:11:20;;;;;;;5.87;2.70;;;;;;;4.67;91.24;99960.53;4948494;29;20215;-69
2021/04/06 09:13:51;;;;;;;4.90;1.83;;;;;;;4.51;89.18;99971.34;4967543;28;20219;-69
2021/04/06 09:16:23;;;;;;;5.63;2.13;;;;;;;4.82;88.70;99962.59;4951368;28;20321;-68
2021/04/06 09:18:55;;;;;;;8.40;2.10;;;;;;;4.83;86.28;99966.88;4967732;28;20190;-69
2021/04/06 09:21:24;;;;;;;5.83;1.97;;;;;;;4.79;86.63;99965.75;4967523;28;20227;-68
2021/04/06 09:23:53;;;;;;;4.50;1.90;;;;;;;4.49;86.16;99951.16;4965927;28;20194;-68
2021/04/06 09:26:22;;;;;;;4.33;1.90;;;;;;;4.66;87.49;99963.47;4967170;28;20708;-69
2021/04/06 09:28:48;;;;;;;5.13;1.90;;;;;;;4.26;89.22;99957.56;4964905;28;20273;-69
2021/04/06 09:31:14;;;;;;;4.20;2.30;;;;;;;4.75;90.53;99967.34;4949294;29;20277;-69
2021/04/06 09:33:42;;;;;;;7.40;2.40;;;;;;;4.95;91.79;99952.22;4952840;28;20654;-68
2021/04/06 09:36:11;;;;;;;8.23;3.00;;;;;;;5.12;88.94;99959.13;4964676;28;20587;-68
2021/04/06 09:38:39;;;;;;;4.33;2.00;;;;;;;5.19;87.65;99967.00;4927803;29;20426;-69
2021/04/06 09:41:05;;;;;;;8.23;2.50;;;;;;;5.37;83.84;99957.50;4947412;28;20230;-70
2021/04/06 09:43:32;;;;;;;4.00;1.70;;;;;;;5.36;82.31;99960.44;4964860;28;20187;-69
2021/04/06 09:45:58;;;;;;;3.57;1.53;;;;;;;5.16;81.01;99954.84;4932782;29;20262;-72
2021/04/06 09:48:25;;;;;;;5.47;1.70;;;;;;;5.08;80.27;99951.81;4967600;28;20202;-69
2021/04/06 09:51:05;;;;;;;6.53;1.87;;;;;;;5.89;80.70;99948.50;4964083;28;20307;-69
2021/04/06 09:53:35;;;;;;;5.93;1.60;;;;;;;5.50;78.35;99942.81;4952352;28;20218;-69
2021/04/06 09:56:00;;;;;;;16.30;10.07;;;;;;;5.72;74.84;99940.81;4951422;28;20222;-70
2021/04/06 09:58:26;;;;;;;8.20;1.87;;;;;;;5.67;75.07;99936.19;4959550;28;20572;-69
2021/04/06 10:00:52;;;;;;;4.60;2.00;;;;;;;5.55;75.86;99932.03;4953163;28;20231;-70
2021/04/06 10:03:24;;;;;;;4.30;1.70;;;;;;;5.46;75.40;99923.66;4971579;28;20282;-70
2021/04/06 10:06:08;;;;;;;5.40;1.90;;;;;;;5.37;75.57;99919.00;4959815;28;20235;-72
2021/04/06 10:08:34;;;;;;;7.70;1.83;;;;;;;5.30;71.85;99915.69;4969257;28;20191;-71
2021/04/06 10:11:02;;;;;;;5.13;1.57;;;;;;;5.11;69.66;99919.00;4963640;28;20576;-71
2021/04/06 10:13:31;;;;;;;5.67;2.07;;;;;;;5.10;73.85;99920.91;4953439;28;20187;-70
2021/04/06 10:16:16;;;;;;;5.17;1.73;;;;;;;5.43;71.52;99917.97;4952250;29;20229;-69
2021/04/06 10:18:43;;;;;;;5.73;1.80;;;;;;;5.49;70.87;99916.94;4952628;29;20199;-70
2021/04/06 10:21:27;;;;;;;5.70;1.53;;;;;;;5.28;68.94;99912.44;4967833;28;20303;-70
2021/04/06 10:24:03;;;;;;;4.00;1.30;;;;;;;5.16;69.04;99911.78;4967019;28;20209;-72
2021/04/06 10:26:29;;;;;;;2.17;1.00;;;;;;;5.36;70.48;99902.00;4935613;28;20708;-71
2021/04/06 10:29:05;;;;;;;4.63;1.50;;;;;;;5.44;71.15;99898.88;4950681;28;20191;-71
2021/04/06 10:31:50;;;;;;;2.23;1.20;;;;;;;5.02;71.81;99910.59;4964654;28;20220;-70
2021/04/06 10:34:18;;;;;;;4.13;1.10;;;;;;;5.43;72.29;99904.50;4960299;28;20193;-72
2021/04/06 10:37:03;;;;;;;4.00;1.30;;;;;;;5.62;69.79;99905.72;4950332;28;20215;-71
2021/04/06 10:39:41;;;;;;;4.43;1.50;;;;;;;5.48;73.12;99893.78;4935286;29;20179;-71
2021/04/06 10:42:10;;;;;;;4.67;1.10;;;;;;;5.36;74.73;99906.59;4962262;28;20311;-70
2021/04/06 10:44:36;;;;;;;3.33;1.27;;;;;;;5.49;74.58;99900.78;4964860;28;20200;-71
2021/04/06 10:47:04;;;;;;;6.80;1.87;;;;;;;5.41;76.46;99887.78;4947744;28;20721;-70
2021/04/06 10:49:29;;;;;;;4.70;1.70;;;;;;;5.63;73.41;99875.03;4944780;29;20189;-73
2021/04/06 10:51:57;;;;;;;4.30;1.40;;;;;;;5.52;73.89;99884.91;4950387;28;20227;-70
2021/04/06 10:54:25;;;;;;;5.67;1.57;;;;;;;5.73;71.38;99875.91;4951585;29;20190;-71
2021/04/06 10:56:56;;;;;;;6.03;1.57;;;;;;;5.27;75.09;99880.41;4950539;29;20242;-70
2021/04/06 10:59:35;;;;;;;4.53;1.50;;;;;;;5.30;74.77;99878.00;4963735;28;20196;-71
2021/04/06 11:02:01;;;;;;;3.77;1.33;;;;;;;5.09;71.35;99884.31;4961010;28;20231;-71
2021/04/06 11:04:37;;;;;;;4.00;2.03;;;;;;;4.97;70.56;99890.09;4947525;28;20206;-73
2021/04/06 11:07:06;;;;;;;4.53;1.90;;;;;;;5.23;68.01;99880.09;4947051;28;20223;-70
2021/04/06 11:09:39;;;;;;;3.83;1.43;;;;;;;5.32;69.01;99873.19;4947384;28;20638;-70
2021/04/06 11:12:05;;;;;;;3.30;1.40;;;;;;;5.76;65.20;99868.13;4930341;28;20337;-71
2021/04/06 11:14:31;;;;;;;5.10;1.23;;;;;;;5.98;64.17;99860.72;4947394;28;20192;-70
2021/04/06 11:16:57;;;;;;;3.87;1.20;;;;;;;6.31;66.91;99865.72;4949763;28;20221;-70
2021/04/06 11:19:25;;;;;;;3.57;1.13;;;;;;;6.02;67.44;99851.03;4947327;29;20221;-71
2021/04/06 11:21:55;;;;;;;1.40;1.03;;;;;;;6.12;68.81;99861.88;4946008;28;20974;-71
2021/04/06 11:24:22;;;;;;;2.20;1.10;;;;;;;6.17;68.54;99861.88;4932578;29;20210;-72
2021/04/06 11:26:47;;;;;;;3.55;1.30;;;;;;;5.88;66.41;99867.97;4948441;29;20458;-72
2021/04/06 11:29:17;;;;;;;1.73;1.10;;;;;;;6.28;61.19;99869.75;4950387;29;20696;-71
2021/04/06 11:31:46;;;;;;;2.00;0.90;;;;;;;6.12;61.43;99853.78;4944362;28;21064;-70
2021/04/06 11:34:27;;;;;;;4.93;1.37;;;;;;;6.47;61.63;99859.31;4968338;28;20219;-74
2021/04/06 11:36:55;;;;;;;4.30;1.10;;;;;;;5.82;62.69;99852.81;4952042;28;20235;-71
2021/04/06 11:39:28;;;;;;;2.60;1.10;;;;;;;5.16;69.53;99857.16;4946082;28;20222;-70
2021/04/06 11:41:57;;;;;;;3.87;2.17;;;;;;;4.68;75.38;99886.84;4950305;28;20218;-71
2021/04/06 11:44:23;;;;;;;3.20;1.30;;;;;;;4.14;90.57;99898.81;4951911;29;20257;-71
2021/04/06 11:46:52;;;;;;;6.63;1.70;;;;;;;3.06;100.00;99917.59;4951667;29;20953;-71
2021/04/06 11:49:20;;;;;;;6.07;1.80;;;;;;;2.30;100.00;99912.91;4953691;28;20214;-69
2021/04/06 11:51:52;;;;;;;2.57;1.73;;;;;;;2.30;100.00;99923.63;4948453;28;20294;-72